sensor_id;sensor_type;location;lat;lon;timestamp;pressure;altitude;pressure_sealevel;temperature
82638;BMP280;72318;36.628;-121.932;2024-01-06T00:02:24;102157.06;;;16.12
82638;BMP280;72318;36.628;-121.932;2024-01-06T00:04:51;102163.41;;;16.40
82638;BMP280;72318;36.628;-121.932;2024-01-06T00:07:17;102167.25;;;16.50
82638;BMP280;72318;36.628;-121.932;2024-01-06T00:09:43;102165.06;;;16.02
82638;BMP280;72318;36.628;-121.932;2024-01-06T00:12:10;102165.59;;;15.74
82638;BMP280;72318;36.628;-121.932;2024-01-06T00:14:36;102161.06;;;15.82
82638;BMP280;72318;36.628;-121.932;2024-01-06T00:17:03;102158.00;;;15.80
82638;BMP280;72318;36.628;-121.932;2024-01-06T00:19:29;102153.63;;;15.61
82638;BMP280;72318;36.628;-121.932;2024-01-06T00:21:56;102153.94;;;15.53
82638;BMP280;72318;36.628;-121.932;2024-01-06T00:24:22;102157.78;;;15.55
82638;BMP280;72318;36.628;-121.932;2024-01-06T00:26:48;102156.59;;;15.53
82638;BMP280;72318;36.628;-121.932;2024-01-06T00:29:14;102163.91;;;15.56
82638;BMP280;72318;36.628;-121.932;2024-01-06T00:31:40;102164.53;;;15.42
82638;BMP280;72318;36.628;-121.932;2024-01-06T00:34:07;102156.03;;;15.33
82638;BMP280;72318;36.628;-121.932;2024-01-06T00:36:33;102162.97;;;15.38
82638;BMP280;72318;36.628;-121.932;2024-01-06T00:38:59;102170.16;;;15.01
82638;BMP280;72318;36.628;-121.932;2024-01-06T00:41:25;102171.50;;;15.18
82638;BMP280;72318;36.628;-121.932;2024-01-06T00:43:52;102175.50;;;15.30
82638;BMP280;72318;36.628;-121.932;2024-01-06T00:46:18;102170.09;;;14.94
82638;BMP280;72318;36.628;-121.932;2024-01-06T00:48:44;102175.88;;;15.00
82638;BMP280;72318;36.628;-121.932;2024-01-06T00:51:10;102180.56;;;15.10
82638;BMP280;72318;36.628;-121.932;2024-01-06T00:53:36;102182.19;;;15.18
82638;BMP280;72318;36.628;-121.932;2024-01-06T00:56:03;102175.97;;;14.77
82638;BMP280;72318;36.628;-121.932;2024-01-06T00:58:29;102173.75;;;14.83
82638;BMP280;72318;36.628;-121.932;2024-01-06T01:00:55;102183.47;;;14.68
82638;BMP280;72318;36.628;-121.932;2024-01-06T01:03:22;102192.00;;;14.77
82638;BMP280;72318;36.628;-121.932;2024-01-06T01:05:48;102194.69;;;14.55
82638;BMP280;72318;36.628;-121.932;2024-01-06T01:08:14;102201.00;;;14.66
82638;BMP280;72318;36.628;-121.932;2024-01-06T01:10:40;102201.88;;;14.47
82638;BMP280;72318;36.628;-121.932;2024-01-06T01:13:06;102208.56;;;14.64
82638;BMP280;72318;36.628;-121.932;2024-01-06T01:15:32;102211.06;;;14.27
82638;BMP280;72318;36.628;-121.932;2024-01-06T01:17:59;102206.81;;;14.01
82638;BMP280;72318;36.628;-121.932;2024-01-06T01:20:25;102213.81;;;14.09
82638;BMP280;72318;36.628;-121.932;2024-01-06T01:22:51;102216.66;;;13.97
82638;BMP280;72318;36.628;-121.932;2024-01-06T01:25:17;102213.34;;;14.26
82638;BMP280;72318;36.628;-121.932;2024-01-06T01:27:43;102227.50;;;14.55
82638;BMP280;72318;36.628;-121.932;2024-01-06T01:30:10;102219.88;;;14.54
82638;BMP280;72318;36.628;-121.932;2024-01-06T01:32:37;102215.25;;;14.51
82638;BMP280;72318;36.628;-121.932;2024-01-06T01:35:03;102222.84;;;15.33
82638;BMP280;72318;36.628;-121.932;2024-01-06T01:37:29;102217.53;;;15.04
82638;BMP280;72318;36.628;-121.932;2024-01-06T01:39:55;102219.13;;;15.12
82638;BMP280;72318;36.628;-121.932;2024-01-06T01:42:22;102210.41;;;15.15
82638;BMP280;72318;36.628;-121.932;2024-01-06T01:44:48;102211.28;;;14.93
82638;BMP280;72318;36.628;-121.932;2024-01-06T01:47:14;102210.13;;;15.23
82638;BMP280;72318;36.628;-121.932;2024-01-06T01:49:47;102215.22;;;15.35
82638;BMP280;72318;36.628;-121.932;2024-01-06T01:52:14;102206.72;;;15.63
82638;BMP280;72318;36.628;-121.932;2024-01-06T01:54:41;102217.06;;;15.64
82638;BMP280;72318;36.628;-121.932;2024-01-06T01:57:08;102217.28;;;15.16
82638;BMP280;72318;36.628;-121.932;2024-01-06T01:59:48;102206.09;;;14.78
82638;BMP280;72318;36.628;-121.932;2024-01-06T02:02:18;102212.94;;;14.75
82638;BMP280;72318;36.628;-121.932;2024-01-06T02:04:50;102211.63;;;15.21
82638;BMP280;72318;36.628;-121.932;2024-01-06T02:07:19;102214.03;;;15.33
82638;BMP280;72318;36.628;-121.932;2024-01-06T02:09:46;102213.97;;;15.59
82638;BMP280;72318;36.628;-121.932;2024-01-06T02:12:12;102212.72;;;15.49
82638;BMP280;72318;36.628;-121.932;2024-01-06T02:14:38;102216.41;;;15.74
82638;BMP280;72318;36.628;-121.932;2024-01-06T02:17:04;102212.69;;;15.46
82638;BMP280;72318;36.628;-121.932;2024-01-06T02:19:39;102215.69;;;16.27
82638;BMP280;72318;36.628;-121.932;2024-01-06T02:22:05;102208.81;;;15.11
82638;BMP280;72318;36.628;-121.932;2024-01-06T02:24:40;102212.81;;;14.94
82638;BMP280;72318;36.628;-121.932;2024-01-06T02:27:23;102216.78;;;15.07
82638;BMP280;72318;36.628;-121.932;2024-01-06T02:29:52;102194.75;;;14.84
82638;BMP280;72318;36.628;-121.932;2024-01-06T02:32:22;102213.94;;;14.16
82638;BMP280;72318;36.628;-121.932;2024-01-06T02:34:55;102214.63;;;13.90
82638;BMP280;72318;36.628;-121.932;2024-01-06T02:37:27;102207.06;;;13.92
82638;BMP280;72318;36.628;-121.932;2024-01-06T02:40:02;102223.94;;;13.77
82638;BMP280;72318;36.628;-121.932;2024-01-06T02:42:32;102210.56;;;13.96
82638;BMP280;72318;36.628;-121.932;2024-01-06T02:44:58;102231.44;;;13.72
82638;BMP280;72318;36.628;-121.932;2024-01-06T02:47:24;102216.22;;;13.53
82638;BMP280;72318;36.628;-121.932;2024-01-06T02:49:50;102230.84;;;13.82
82638;BMP280;72318;36.628;-121.932;2024-01-06T02:52:17;102235.97;;;13.90
82638;BMP280;72318;36.628;-121.932;2024-01-06T02:54:43;102236.63;;;14.06
82638;BMP280;72318;36.628;-121.932;2024-01-06T02:57:09;102236.81;;;13.75
82638;BMP280;72318;36.628;-121.932;2024-01-06T02:59:35;102231.91;;;14.19
82638;BMP280;72318;36.628;-121.932;2024-01-06T03:02:02;102222.72;;;13.75
82638;BMP280;72318;36.628;-121.932;2024-01-06T03:04:28;102213.75;;;13.64
82638;BMP280;72318;36.628;-121.932;2024-01-06T03:06:54;102211.72;;;13.99
82638;BMP280;72318;36.628;-121.932;2024-01-06T03:09:20;102218.38;;;14.08
82638;BMP280;72318;36.628;-121.932;2024-01-06T03:11:46;102205.03;;;13.67
82638;BMP280;72318;36.628;-121.932;2024-01-06T03:14:13;102205.63;;;13.98
82638;BMP280;72318;36.628;-121.932;2024-01-06T03:16:39;102204.03;;;13.52
82638;BMP280;72318;36.628;-121.932;2024-01-06T03:19:06;102201.31;;;13.90
82638;BMP280;72318;36.628;-121.932;2024-01-06T03:21:32;102191.56;;;13.56
82638;BMP280;72318;36.628;-121.932;2024-01-06T03:23:58;102189.50;;;14.14
82638;BMP280;72318;36.628;-121.932;2024-01-06T03:26:25;102192.31;;;13.38
82638;BMP280;72318;36.628;-121.932;2024-01-06T03:28:51;102199.75;;;13.89
82638;BMP280;72318;36.628;-121.932;2024-01-06T03:31:17;102200.78;;;13.43
82638;BMP280;72318;36.628;-121.932;2024-01-06T03:33:45;102196.09;;;13.37
82638;BMP280;72318;36.628;-121.932;2024-01-06T03:36:12;102200.78;;;13.25
82638;BMP280;72318;36.628;-121.932;2024-01-06T03:38:40;102181.81;;;13.26
82638;BMP280;72318;36.628;-121.932;2024-01-06T03:41:06;102194.22;;;13.19
82638;BMP280;72318;36.628;-121.932;2024-01-06T03:43:33;102182.22;;;13.09
82638;BMP280;72318;36.628;-121.932;2024-01-06T03:45:59;102197.31;;;13.21
82638;BMP280;72318;36.628;-121.932;2024-01-06T03:48:26;102196.88;;;13.37
82638;BMP280;72318;36.628;-121.932;2024-01-06T03:50:52;102195.63;;;12.78
82638;BMP280;72318;36.628;-121.932;2024-01-06T03:53:18;102188.97;;;12.88
82638;BMP280;72318;36.628;-121.932;2024-01-06T03:55:44;102200.09;;;12.90
82638;BMP280;72318;36.628;-121.932;2024-01-06T03:58:11;102203.66;;;12.63
82638;BMP280;72318;36.628;-121.932;2024-01-06T04:00:37;102204.16;;;12.53
82638;BMP280;72318;36.628;-121.932;2024-01-06T04:03:03;102210.94;;;12.50
82638;BMP280;72318;36.628;-121.932;2024-01-06T04:05:31;102197.97;;;12.64
82638;BMP280;72318;36.628;-121.932;2024-01-06T04:07:57;102199.81;;;12.45
82638;BMP280;72318;36.628;-121.932;2024-01-06T04:10:23;102196.88;;;12.50
82638;BMP280;72318;36.628;-121.932;2024-01-06T04:12:50;102198.88;;;12.87
82638;BMP280;72318;36.628;-121.932;2024-01-06T04:15:16;102198.88;;;12.87
82638;BMP280;72318;36.628;-121.932;2024-01-06T04:17:42;102204.41;;;12.63
82638;BMP280;72318;36.628;-121.932;2024-01-06T04:20:09;102207.84;;;12.64
82638;BMP280;72318;36.628;-121.932;2024-01-06T04:22:38;102220.66;;;12.58
82638;BMP280;72318;36.628;-121.932;2024-01-06T04:25:04;102228.47;;;12.51
82638;BMP280;72318;36.628;-121.932;2024-01-06T04:27:31;102237.25;;;12.71
82638;BMP280;72318;36.628;-121.932;2024-01-06T04:29:59;102243.13;;;12.76
82638;BMP280;72318;36.628;-121.932;2024-01-06T04:32:26;102233.91;;;12.43
82638;BMP280;72318;36.628;-121.932;2024-01-06T04:34:52;102228.88;;;12.38
82638;BMP280;72318;36.628;-121.932;2024-01-06T04:37:18;102228.16;;;12.25
82638;BMP280;72318;36.628;-121.932;2024-01-06T04:39:44;102235.81;;;12.27
82638;BMP280;72318;36.628;-121.932;2024-01-06T04:42:10;102234.94;;;12.23
82638;BMP280;72318;36.628;-121.932;2024-01-06T04:44:36;102227.31;;;12.68
82638;BMP280;72318;36.628;-121.932;2024-01-06T04:47:03;102229.22;;;13.02
82638;BMP280;72318;36.628;-121.932;2024-01-06T04:49:29;102232.78;;;12.75
82638;BMP280;72318;36.628;-121.932;2024-01-06T04:51:55;102231.25;;;12.43
82638;BMP280;72318;36.628;-121.932;2024-01-06T04:54:22;102221.56;;;12.66
82638;BMP280;72318;36.628;-121.932;2024-01-06T04:56:48;102222.16;;;12.59
82638;BMP280;72318;36.628;-121.932;2024-01-06T04:59:14;102213.06;;;12.60
82638;BMP280;72318;36.628;-121.932;2024-01-06T05:01:40;102212.88;;;12.69
82638;BMP280;72318;36.628;-121.932;2024-01-06T05:04:07;102214.50;;;12.73
82638;BMP280;72318;36.628;-121.932;2024-01-06T05:06:34;102216.22;;;12.66
82638;BMP280;72318;36.628;-121.932;2024-01-06T05:09:00;102217.47;;;12.53
82638;BMP280;72318;36.628;-121.932;2024-01-06T05:11:26;102224.16;;;12.62
82638;BMP280;72318;36.628;-121.932;2024-01-06T05:13:52;102230.56;;;12.46
82638;BMP280;72318;36.628;-121.932;2024-01-06T05:16:19;102231.50;;;12.53
82638;BMP280;72318;36.628;-121.932;2024-01-06T05:18:45;102228.25;;;12.29
82638;BMP280;72318;36.628;-121.932;2024-01-06T05:21:11;102223.19;;;12.24
82638;BMP280;72318;36.628;-121.932;2024-01-06T05:23:37;102228.09;;;12.22
82638;BMP280;72318;36.628;-121.932;2024-01-06T05:26:03;102222.31;;;12.05
82638;BMP280;72318;36.628;-121.932;2024-01-06T05:28:30;102221.66;;;12.38
82638;BMP280;72318;36.628;-121.932;2024-01-06T05:30:56;102221.22;;;12.21
82638;BMP280;72318;36.628;-121.932;2024-01-06T05:33:22;102220.91;;;12.23
82638;BMP280;72318;36.628;-121.932;2024-01-06T05:35:48;102218.28;;;12.11
82638;BMP280;72318;36.628;-121.932;2024-01-06T05:38:15;102224.25;;;11.92
82638;BMP280;72318;36.628;-121.932;2024-01-06T05:40:42;102227.63;;;11.89
82638;BMP280;72318;36.628;-121.932;2024-01-06T05:43:08;102216.75;;;12.25
82638;BMP280;72318;36.628;-121.932;2024-01-06T05:45:35;102211.16;;;11.72
82638;BMP280;72318;36.628;-121.932;2024-01-06T05:48:04;102222.00;;;11.79
82638;BMP280;72318;36.628;-121.932;2024-01-06T05:50:30;102217.84;;;11.66
82638;BMP280;72318;36.628;-121.932;2024-01-06T05:52:56;102215.34;;;11.85
82638;BMP280;72318;36.628;-121.932;2024-01-06T05:55:22;102208.13;;;11.85
82638;BMP280;72318;36.628;-121.932;2024-01-06T05:57:49;102205.41;;;11.70
82638;BMP280;72318;36.628;-121.932;2024-01-06T06:00:15;102184.56;;;11.56
82638;BMP280;72318;36.628;-121.932;2024-01-06T06:02:42;102194.91;;;11.73
82638;BMP280;72318;36.628;-121.932;2024-01-06T06:05:08;102173.94;;;11.56
82638;BMP280;72318;36.628;-121.932;2024-01-06T06:07:34;102172.81;;;11.69
82638;BMP280;72318;36.628;-121.932;2024-01-06T06:10:08;102177.81;;;11.59
82638;BMP280;72318;36.628;-121.932;2024-01-06T06:12:35;102177.94;;;11.62
82638;BMP280;72318;36.628;-121.932;2024-01-06T06:15:03;102190.41;;;11.34
82638;BMP280;72318;36.628;-121.932;2024-01-06T06:17:33;102192.06;;;11.39
82638;BMP280;72318;36.628;-121.932;2024-01-06T06:19:59;102190.75;;;11.33
82638;BMP280;72318;36.628;-121.932;2024-01-06T06:22:26;102193.69;;;11.43
82638;BMP280;72318;36.628;-121.932;2024-01-06T06:24:56;102182.88;;;11.36
82638;BMP280;72318;36.628;-121.932;2024-01-06T06:27:23;102191.28;;;11.26
82638;BMP280;72318;36.628;-121.932;2024-01-06T06:29:50;102186.88;;;11.18
82638;BMP280;72318;36.628;-121.932;2024-01-06T06:32:16;102179.50;;;11.12
82638;BMP280;72318;36.628;-121.932;2024-01-06T06:34:42;102176.91;;;11.27
82638;BMP280;72318;36.628;-121.932;2024-01-06T06:37:09;102174.63;;;11.14
82638;BMP280;72318;36.628;-121.932;2024-01-06T06:39:35;102165.69;;;11.07
82638;BMP280;72318;36.628;-121.932;2024-01-06T06:42:02;102151.25;;;11.31
82638;BMP280;72318;36.628;-121.932;2024-01-06T06:44:28;102154.25;;;10.79
82638;BMP280;72318;36.628;-121.932;2024-01-06T06:46:57;102147.50;;;10.57
82638;BMP280;72318;36.628;-121.932;2024-01-06T06:49:24;102152.25;;;10.76
82638;BMP280;72318;36.628;-121.932;2024-01-06T06:51:50;102169.06;;;10.80
82638;BMP280;72318;36.628;-121.932;2024-01-06T06:54:16;102166.63;;;10.87
82638;BMP280;72318;36.628;-121.932;2024-01-06T06:56:43;102167.72;;;10.74
82638;BMP280;72318;36.628;-121.932;2024-01-06T06:59:09;102160.75;;;10.93
82638;BMP280;72318;36.628;-121.932;2024-01-06T07:01:35;102167.41;;;10.63
82638;BMP280;72318;36.628;-121.932;2024-01-06T07:04:02;102168.16;;;10.64
82638;BMP280;72318;36.628;-121.932;2024-01-06T07:06:29;102160.97;;;10.52
82638;BMP280;72318;36.628;-121.932;2024-01-06T07:08:56;102182.97;;;10.41
82638;BMP280;72318;36.628;-121.932;2024-01-06T07:11:23;102181.66;;;10.71
82638;BMP280;72318;36.628;-121.932;2024-01-06T07:13:50;102179.94;;;10.42
82638;BMP280;72318;36.628;-121.932;2024-01-06T07:16:16;102175.44;;;10.31
82638;BMP280;72318;36.628;-121.932;2024-01-06T07:18:42;102179.22;;;10.54
82638;BMP280;72318;36.628;-121.932;2024-01-06T07:21:09;102201.81;;;10.27
82638;BMP280;72318;36.628;-121.932;2024-01-06T07:23:35;102178.84;;;10.31
82638;BMP280;72318;36.628;-121.932;2024-01-06T07:26:01;102191.09;;;10.24
82638;BMP280;72318;36.628;-121.932;2024-01-06T07:28:28;102181.25;;;10.12
82638;BMP280;72318;36.628;-121.932;2024-01-06T07:30:55;102185.03;;;10.23
82638;BMP280;72318;36.628;-121.932;2024-01-06T07:33:21;102185.00;;;10.11
82638;BMP280;72318;36.628;-121.932;2024-01-06T07:35:47;102191.97;;;10.28
82638;BMP280;72318;36.628;-121.932;2024-01-06T07:38:14;102189.13;;;10.21
82638;BMP280;72318;36.628;-121.932;2024-01-06T07:40:40;102187.03;;;10.38
82638;BMP280;72318;36.628;-121.932;2024-01-06T07:43:07;102186.72;;;10.40
82638;BMP280;72318;36.628;-121.932;2024-01-06T07:45:33;102189.25;;;10.36
82638;BMP280;72318;36.628;-121.932;2024-01-06T07:47:59;102175.16;;;10.56
82638;BMP280;72318;36.628;-121.932;2024-01-06T07:50:26;102178.53;;;10.33
82638;BMP280;72318;36.628;-121.932;2024-01-06T07:52:54;102179.72;;;10.23
82638;BMP280;72318;36.628;-121.932;2024-01-06T07:55:20;102178.91;;;10.55
82638;BMP280;72318;36.628;-121.932;2024-01-06T07:57:46;102176.94;;;10.20
82638;BMP280;72318;36.628;-121.932;2024-01-06T08:00:13;102175.38;;;10.07
82638;BMP280;72318;36.628;-121.932;2024-01-06T08:02:42;102166.59;;;10.39
82638;BMP280;72318;36.628;-121.932;2024-01-06T08:05:08;102161.03;;;10.20
82638;BMP280;72318;36.628;-121.932;2024-01-06T08:07:35;102156.56;;;10.32
82638;BMP280;72318;36.628;-121.932;2024-01-06T08:10:02;102167.44;;;10.19
82638;BMP280;72318;36.628;-121.932;2024-01-06T08:12:31;102146.06;;;10.36
82638;BMP280;72318;36.628;-121.932;2024-01-06T08:14:57;102149.00;;;10.10
82638;BMP280;72318;36.628;-121.932;2024-01-06T08:17:23;102130.25;;;10.27
82638;BMP280;72318;36.628;-121.932;2024-01-06T08:19:50;102138.72;;;10.09
82638;BMP280;72318;36.628;-121.932;2024-01-06T08:22:17;102133.00;;;10.07
82638;BMP280;72318;36.628;-121.932;2024-01-06T08:24:43;102128.50;;;10.07
82638;BMP280;72318;36.628;-121.932;2024-01-06T08:27:09;102131.63;;;10.01
82638;BMP280;72318;36.628;-121.932;2024-01-06T08:29:35;102134.56;;;10.08
82638;BMP280;72318;36.628;-121.932;2024-01-06T08:32:02;102123.47;;;9.94
82638;BMP280;72318;36.628;-121.932;2024-01-06T08:34:28;102109.06;;;10.15
82638;BMP280;72318;36.628;-121.932;2024-01-06T08:36:54;102105.81;;;10.10
82638;BMP280;72318;36.628;-121.932;2024-01-06T08:39:20;102098.69;;;10.46
82638;BMP280;72318;36.628;-121.932;2024-01-06T08:41:48;102090.94;;;10.17
82638;BMP280;72318;36.628;-121.932;2024-01-06T08:44:14;102075.50;;;10.19
82638;BMP280;72318;36.628;-121.932;2024-01-06T08:46:40;102081.81;;;10.15
82638;BMP280;72318;36.628;-121.932;2024-01-06T08:49:07;102067.34;;;10.24
82638;BMP280;72318;36.628;-121.932;2024-01-06T08:51:33;102065.78;;;10.11
82638;BMP280;72318;36.628;-121.932;2024-01-06T08:54:01;102063.31;;;9.95
82638;BMP280;72318;36.628;-121.932;2024-01-06T08:56:30;102055.63;;;9.90
82638;BMP280;72318;36.628;-121.932;2024-01-06T08:58:56;102055.63;;;10.01
82638;BMP280;72318;36.628;-121.932;2024-01-06T09:01:22;102047.66;;;10.01
82638;BMP280;72318;36.628;-121.932;2024-01-06T09:03:49;102044.91;;;10.10
82638;BMP280;72318;36.628;-121.932;2024-01-06T09:06:15;102049.53;;;10.01
82638;BMP280;72318;36.628;-121.932;2024-01-06T09:08:42;102035.00;;;10.31
82638;BMP280;72318;36.628;-121.932;2024-01-06T09:11:08;102024.50;;;10.10
82638;BMP280;72318;36.628;-121.932;2024-01-06T09:13:34;102030.56;;;10.11
82638;BMP280;72318;36.628;-121.932;2024-01-06T09:16:01;102031.31;;;9.88
82638;BMP280;72318;36.628;-121.932;2024-01-06T09:18:27;102039.63;;;9.98
82638;BMP280;72318;36.628;-121.932;2024-01-06T09:20:53;102050.94;;;9.87
82638;BMP280;72318;36.628;-121.932;2024-01-06T09:23:20;102063.19;;;9.79
82638;BMP280;72318;36.628;-121.932;2024-01-06T09:25:47;102062.09;;;9.80
82638;BMP280;72318;36.628;-121.932;2024-01-06T09:28:18;102055.28;;;9.91
82638;BMP280;72318;36.628;-121.932;2024-01-06T09:30:44;102058.69;;;10.03
82638;BMP280;72318;36.628;-121.932;2024-01-06T09:33:10;102044.03;;;10.06
82638;BMP280;72318;36.628;-121.932;2024-01-06T09:35:41;102048.66;;;9.97
82638;BMP280;72318;36.628;-121.932;2024-01-06T09:38:08;102048.44;;;9.90
82638;BMP280;72318;36.628;-121.932;2024-01-06T09:40:35;102060.00;;;9.86
82638;BMP280;72318;36.628;-121.932;2024-01-06T09:43:02;102064.53;;;9.85
82638;BMP280;72318;36.628;-121.932;2024-01-06T09:45:28;102062.09;;;9.80
82638;BMP280;72318;36.628;-121.932;2024-01-06T09:47:55;102068.06;;;9.89
82638;BMP280;72318;36.628;-121.932;2024-01-06T09:50:22;102075.47;;;9.84
82638;BMP280;72318;36.628;-121.932;2024-01-06T09:52:48;102078.13;;;9.96
82638;BMP280;72318;36.628;-121.932;2024-01-06T09:55:29;102093.91;;;9.92
82638;BMP280;72318;36.628;-121.932;2024-01-06T09:57:56;102082.84;;;9.78
82638;BMP280;72318;36.628;-121.932;2024-01-06T10:00:22;102087.97;;;10.19
82638;BMP280;72318;36.628;-121.932;2024-01-06T10:02:49;102090.25;;;9.97
82638;BMP280;72318;36.628;-121.932;2024-01-06T10:05:16;102086.78;;;9.72
82638;BMP280;72318;36.628;-121.932;2024-01-06T10:07:48;102092.41;;;9.71
82638;BMP280;72318;36.628;-121.932;2024-01-06T10:10:14;102087.22;;;9.74
82638;BMP280;72318;36.628;-121.932;2024-01-06T10:12:42;102097.09;;;9.53
82638;BMP280;72318;36.628;-121.932;2024-01-06T10:15:09;102087.22;;;9.74
82638;BMP280;72318;36.628;-121.932;2024-01-06T10:17:42;102087.75;;;9.68
82638;BMP280;72318;36.628;-121.932;2024-01-06T10:20:11;102092.78;;;9.81
82638;BMP280;72318;36.628;-121.932;2024-01-06T10:22:40;102092.13;;;9.84
82638;BMP280;72318;36.628;-121.932;2024-01-06T10:25:10;102093.41;;;9.78
82638;BMP280;72318;36.628;-121.932;2024-01-06T10:27:38;102101.16;;;9.83
82638;BMP280;72318;36.628;-121.932;2024-01-06T10:30:07;102084.66;;;9.98
82638;BMP280;72318;36.628;-121.932;2024-01-06T10:32:34;102091.72;;;9.62
82638;BMP280;72318;36.628;-121.932;2024-01-06T10:35:02;102085.44;;;9.34
82638;BMP280;72318;36.628;-121.932;2024-01-06T10:37:29;102085.94;;;9.27
82638;BMP280;72318;36.628;-121.932;2024-01-06T10:42:36;102082.84;;;9.78
82638;BMP280;72318;36.628;-121.932;2024-01-06T10:45:04;102079.09;;;9.79
82638;BMP280;72318;36.628;-121.932;2024-01-06T10:47:32;102071.25;;;9.71
82638;BMP280;72318;36.628;-121.932;2024-01-06T10:50:00;102072.38;;;10.05
82638;BMP280;72318;36.628;-121.932;2024-01-06T10:52:27;102068.66;;;10.18
82638;BMP280;72318;36.628;-121.932;2024-01-06T10:54:57;102064.47;;;10.17
82638;BMP280;72318;36.628;-121.932;2024-01-06T10:57:24;102042.47;;;10.17
82638;BMP280;72318;36.628;-121.932;2024-01-06T10:59:52;102049.22;;;10.02
82638;BMP280;72318;36.628;-121.932;2024-01-06T11:02:19;102045.41;;;9.68
82638;BMP280;72318;36.628;-121.932;2024-01-06T11:04:46;102041.06;;;9.39
82638;BMP280;72318;36.628;-121.932;2024-01-06T11:07:18;102039.81;;;9.81
82638;BMP280;72318;36.628;-121.932;2024-01-06T11:12:32;102043.59;;;9.48
82638;BMP280;72318;36.628;-121.932;2024-01-06T11:14:59;102055.53;;;9.33
82638;BMP280;72318;36.628;-121.932;2024-01-06T11:20:13;102056.16;;;9.51
82638;BMP280;72318;36.628;-121.932;2024-01-06T11:22:39;102059.66;;;9.75
82638;BMP280;72318;36.628;-121.932;2024-01-06T11:25:16;102056.94;;;9.51
82638;BMP280;72318;36.628;-121.932;2024-01-06T11:27:43;102054.50;;;9.46
82638;BMP280;72318;36.628;-121.932;2024-01-06T11:30:24;102046.94;;;9.57
82638;BMP280;72318;36.628;-121.932;2024-01-06T11:32:56;102038.25;;;9.56
82638;BMP280;72318;36.628;-121.932;2024-01-06T11:35:26;102031.56;;;9.50
82638;BMP280;72318;36.628;-121.932;2024-01-06T11:37:58;102040.53;;;9.58
82638;BMP280;72318;36.628;-121.932;2024-01-06T11:40:32;102036.63;;;9.43
82638;BMP280;72318;36.628;-121.932;2024-01-06T11:43:07;102049.84;;;9.43
82638;BMP280;72318;36.628;-121.932;2024-01-06T11:45:34;102050.22;;;9.21
82638;BMP280;72318;36.628;-121.932;2024-01-06T11:48:02;102040.69;;;9.41
82638;BMP280;72318;36.628;-121.932;2024-01-06T11:50:33;102033.72;;;9.36
82638;BMP280;72318;36.628;-121.932;2024-01-06T11:52:59;102037.41;;;9.44
82638;BMP280;72318;36.628;-121.932;2024-01-06T11:55:26;102032.75;;;9.41
82638;BMP280;72318;36.628;-121.932;2024-01-06T11:57:58;102042.16;;;9.38
82638;BMP280;72318;36.628;-121.932;2024-01-06T12:00:33;102034.84;;;9.35
82638;BMP280;72318;36.628;-121.932;2024-01-06T12:03:02;102051.19;;;9.17
82638;BMP280;72318;36.628;-121.932;2024-01-06T12:05:28;102056.94;;;9.19
82638;BMP280;72318;36.628;-121.932;2024-01-06T12:10:26;102050.44;;;8.96
82638;BMP280;72318;36.628;-121.932;2024-01-06T12:13:03;102058.94;;;9.01
82638;BMP280;72318;36.628;-121.932;2024-01-06T12:15:31;102053.13;;;9.08
82638;BMP280;72318;36.628;-121.932;2024-01-06T12:17:58;102050.75;;;8.94
82638;BMP280;72318;36.628;-121.932;2024-01-06T12:20:25;102062.13;;;8.86
82638;BMP280;72318;36.628;-121.932;2024-01-06T12:22:52;102055.44;;;9.09
82638;BMP280;72318;36.628;-121.932;2024-01-06T12:25:24;102066.59;;;9.15
82638;BMP280;72318;36.628;-121.932;2024-01-06T12:27:52;102057.19;;;9.05
82638;BMP280;72318;36.628;-121.932;2024-01-06T12:30:21;102050.53;;;8.99
82638;BMP280;72318;36.628;-121.932;2024-01-06T12:32:48;102057.06;;;9.02
82638;BMP280;72318;36.628;-121.932;2024-01-06T12:35:20;102063.31;;;8.97
82638;BMP280;72318;36.628;-121.932;2024-01-06T12:37:47;102057.97;;;9.06
82638;BMP280;72318;36.628;-121.932;2024-01-06T12:40:14;102051.31;;;9.00
82638;BMP280;72318;36.628;-121.932;2024-01-06T12:42:43;102046.41;;;8.90
82638;BMP280;72318;36.628;-121.932;2024-01-06T12:45:10;102045.72;;;9.01
82638;BMP280;72318;36.628;-121.932;2024-01-06T12:47:37;102046.09;;;8.71
82638;BMP280;72318;36.628;-121.932;2024-01-06T12:50:04;102041.91;;;8.70
82638;BMP280;72318;36.628;-121.932;2024-01-06T12:52:30;102037.13;;;9.04
82638;BMP280;72318;36.628;-121.932;2024-01-06T12:54:57;102033.25;;;9.02
82638;BMP280;72318;36.628;-121.932;2024-01-06T12:57:23;102029.38;;;8.99
82638;BMP280;72318;36.628;-121.932;2024-01-06T12:59:49;102036.41;;;8.75
82638;BMP280;72318;36.628;-121.932;2024-01-06T13:02:15;102030.78;;;8.76
82638;BMP280;72318;36.628;-121.932;2024-01-06T13:04:41;102026.72;;;8.59
82638;BMP280;72318;36.628;-121.932;2024-01-06T13:07:09;102017.91;;;8.55
82638;BMP280;72318;36.628;-121.932;2024-01-06T13:09:35;102019.72;;;8.83
82638;BMP280;72318;36.628;-121.932;2024-01-06T13:12:02;102022.94;;;8.88
82638;BMP280;72318;36.628;-121.932;2024-01-06T13:14:28;102024.97;;;8.63
82638;BMP280;72318;36.628;-121.932;2024-01-06T13:16:56;102008.63;;;8.69
82638;BMP280;72318;36.628;-121.932;2024-01-06T13:19:22;102004.25;;;8.93
82638;BMP280;72318;36.628;-121.932;2024-01-06T13:21:49;101997.00;;;8.62
82638;BMP280;72318;36.628;-121.932;2024-01-06T13:24:15;102003.75;;;8.51
82638;BMP280;72318;36.628;-121.932;2024-01-06T13:26:41;101996.88;;;8.78
82638;BMP280;72318;36.628;-121.932;2024-01-06T13:29:07;101985.38;;;9.03
82638;BMP280;72318;36.628;-121.932;2024-01-06T13:31:34;101990.03;;;9.18
82638;BMP280;72318;36.628;-121.932;2024-01-06T13:34:00;101983.13;;;9.26
82638;BMP280;72318;36.628;-121.932;2024-01-06T13:36:26;101961.97;;;9.05